Bryan's Hourly Summary for Friday, March 17, 2017
Hour Temp
(f)
RH
(%)
Solar Rad.
(MJ/m2)
Rainfall
(in)
Wind
(mph)
3/17/2017 12:00 AM 66 85 0 0 7.78
3/17/2017 1:00 AM 66 88 0 0 9.42
3/17/2017 2:00 AM 67 86 0 0 10.37
3/17/2017 3:00 AM 67 85 0 0 9.18
3/17/2017 4:00 AM 67 85 0 0 7.71
3/17/2017 5:00 AM 67 84 0 0 7.55
3/17/2017 6:00 AM 67 84 0 0 6.83
3/17/2017 7:00 AM 67 84 0 0 8.04
3/17/2017 8:00 AM 67 84 0.01 0 7.36
3/17/2017 9:00 AM 67 86 0.19 0 8.29
3/17/2017 10:00 AM 68 82 0.43 0 9.05
3/17/2017 11:00 AM 69 77 0.86 0 10.35
3/17/2017 12:00 PM 71 73 0.92 0 10.96
3/17/2017 1:00 PM 73 66 1.09 0 11.48
3/17/2017 2:00 PM 74 61 1.32 0 11.01
3/17/2017 3:00 PM 76 54 1.78 0 10.43
3/17/2017 4:00 PM 78 51 1.79 0 10.71
3/17/2017 5:00 PM 79 49 1.83 0 10.27
3/17/2017 6:00 PM 78 49 1.33 0 10.67
3/17/2017 7:00 PM 77 52 0.56 0 9.8
3/17/2017 8:00 PM 74 57 0.05 0 8.35
3/17/2017 9:00 PM 72 65 0 0 8.1
3/17/2017 10:00 PM 70 71 0 0 8.51
3/17/2017 11:00 PM 69 77 0 0 7.69
Data Summary 70 72 12.16 0.00 9.16